| time (UTC) | temp C | wind direction | speed KPH | gust KPH | rain 1hr cm | rain 24hr cm | rain mn cm | humidity % | barometer mb |
| 20260507200517 | 9 | 0.0 | 0.0 | 0.05 | 0.30 | 0.15 | 91 | 1015.3 | |
| 20260507195516 | 9 | 0.0 | 0.0 | 0.05 | 0.36 | 0.15 | 91 | 1015.2 | |
| 20260507194517 | 9 | 0.0 | 0.0 | 0.03 | 0.41 | 0.13 | 91 | 1015.1 | |
| 20260507193556 | 9 | 0.0 | 0.0 | 0.03 | 0.43 | 0.13 | 91 | 1015.0 | |
| 20260507192516 | 9 | 0.0 | 0.0 | 0.03 | 0.46 | 0.13 | 90 | 1014.9 | |
| 20260507191517 | 9 | 0.0 | 0.0 | 0.03 | 0.51 | 0.13 | 90 | 1014.9 | |
| 20260507190517 | 9 | 0.0 | 3.2 | 0.03 | 0.51 | 0.13 | 90 | 1014.7 | |
| 20260507185516 | 9 | 293 | 3.2 | 8.0 | 0.00 | 0.51 | 0.10 | 89 | 1014.7 |
| 20260507184516 | 9 | 293 | 1.6 | 4.8 | 0.00 | 0.51 | 0.10 | 89 | 1014.5 |
| 20260507183537 | 9 | 293 | 1.6 | 3.2 | 0.00 | 0.51 | 0.10 | 89 | 1014.5 |
| 20260507182516 | 10 | 0.0 | 0.0 | 0.00 | 0.51 | 0.10 | 89 | 1014.4 | |
| 20260507181516 | 10 | 0.0 | 3.2 | 0.00 | 0.51 | 0.10 | 89 | 1014.3 | |
| 20260507180516 | 10 | 293 | 1.6 | 4.8 | 0.00 | 0.51 | 0.10 | 88 | 1014.2 |
| 20260507175537 | 10 | 293 | 1.6 | 4.8 | 0.00 | 0.51 | 0.10 | 88 | 1014.3 |
| 20260507174516 | 10 | 293 | 1.6 | 4.8 | 0.00 | 0.51 | 0.10 | 88 | 1014.1 |
| 20260507173516 | 9 | 315 | 3.2 | 8.0 | 0.00 | 0.51 | 0.10 | 88 | 1014.1 |
| 20260507172516 | 10 | 293 | 4.8 | 9.7 | 0.00 | 0.51 | 0.10 | 87 | 1014.0 |
| 20260507171516 | 10 | 293 | 6.4 | 14.5 | 0.00 | 0.56 | 0.10 | 88 | 1014.0 |
| 20260507170516 | 10 | 293 | 4.8 | 11.3 | 0.00 | 0.61 | 0.10 | 88 | 1013.9 |
| 20260507165559 | 10 | 293 | 4.8 | 8.0 | 0.00 | 0.69 | 0.10 | 87 | 1013.9 |
| 20260507164516 | 10 | 315 | 4.8 | 9.7 | 0.00 | 0.74 | 0.10 | 87 | 1013.9 |
| 20260507163516 | 10 | 293 | 4.8 | 14.5 | 0.00 | 0.74 | 0.10 | 86 | 1013.8 |
| 20260507162516 | 10 | 270 | 8.0 | 14.5 | 0.00 | 0.74 | 0.10 | 86 | 1013.6 |
| 20260507161516 | 11 | 270 | 6.4 | 14.5 | 0.00 | 0.74 | 0.10 | 87 | 1013.6 |
| 20260507160556 | 11 | 270 | 6.4 | 11.3 | 0.00 | 0.74 | 0.10 | 87 | 1013.6 |
| 20260507155517 | 11 | 270 | 6.4 | 12.9 | 0.00 | 0.74 | 0.10 | 88 | 1013.5 |
| 20260507154516 | 11 | 270 | 4.8 | 9.7 | 0.00 | 0.74 | 0.10 | 89 | 1013.4 |
| 20260507153539 | 11 | 270 | 4.8 | 9.7 | 0.00 | 0.74 | 0.10 | 90 | 1013.4 |
| 20260507152516 | 11 | 270 | 1.6 | 6.4 | 0.00 | 0.74 | 0.10 | 90 | 1013.4 |
| 20260507151516 | 10 | 270 | 6.4 | 14.5 | 0.03 | 0.74 | 0.10 | 91 | 1013.4 |
| 20260507150516 | 10 | 270 | 6.4 | 17.7 | 0.03 | 0.74 | 0.10 | 91 | 1013.3 |
| 20260507145516 | 10 | 270 | 8.0 | 14.5 | 0.05 | 0.74 | 0.10 | 90 | 1013.3 |
| 20260507144516 | 10 | 270 | 8.0 | 19.3 | 0.05 | 0.74 | 0.10 | 91 | 1013.3 |
| 20260507143516 | 10 | 293 | 4.8 | 11.3 | 0.05 | 0.74 | 0.10 | 91 | 1013.2 |
| 20260507142516 | 10 | 315 | 3.2 | 8.0 | 0.05 | 0.74 | 0.10 | 90 | 1013.2 |
| 20260507141516 | 10 | 315 | 4.8 | 12.9 | 0.03 | 0.71 | 0.08 | 89 | 1013.1 |
| 20260507140516 | 10 | 293 | 6.4 | 14.5 | 0.03 | 0.71 | 0.08 | 89 | 1013.2 |
| 20260507135516 | 10 | 293 | 4.8 | 11.3 | 0.00 | 0.71 | 0.05 | 88 | 1013.1 |
| 20260507134516 | 11 | 248 | 6.4 | 12.9 | 0.00 | 0.71 | 0.05 | 87 | 1013.1 |
| 20260507133515 | 11 | 270 | 6.4 | 12.9 | 0.00 | 0.71 | 0.05 | 86 | 1013.0 |
| 20260507132556 | 11 | 270 | 11.3 | 17.7 | 0.00 | 0.71 | 0.05 | 85 | 1012.9 |
| 20260507131516 | 11 | 270 | 8.0 | 17.7 | 0.00 | 0.71 | 0.05 | 86 | 1012.9 |
| 20260507130516 | 10 | 248 | 6.4 | 14.5 | 0.00 | 0.71 | 0.05 | 85 | 1012.7 |
| 20260507125516 | 10 | 225 | 8.0 | 19.3 | 0.00 | 0.71 | 0.05 | 85 | 1012.6 |
| 20260507124515 | 11 | 270 | 11.3 | 17.7 | 0.00 | 0.71 | 0.05 | 85 | 1012.5 |
| 20260507123516 | 11 | 225 | 6.4 | 11.3 | 0.00 | 0.71 | 0.05 | 85 | 1012.4 |
| 20260507122515 | 11 | 248 | 4.8 | 11.3 | 0.00 | 0.71 | 0.05 | 86 | 1012.2 |
| 20260507121517 | 10 | 270 | 9.7 | 17.7 | 0.00 | 0.71 | 0.05 | 86 | 1012.3 |
| 20260507120517 | 11 | 225 | 6.4 | 12.9 | 0.00 | 0.71 | 0.05 | 87 | 1012.2 |
| 20260507115518 | 11 | 270 | 9.7 | 16.1 | 0.00 | 0.71 | 0.05 | 87 | 1012.1 |
| 20260507114517 | 11 | 270 | 9.7 | 16.1 | 0.00 | 0.71 | 0.05 | 87 | 1012.1 |
| 20260507113517 | 11 | 248 | 9.7 | 19.3 | 0.00 | 0.71 | 0.05 | 88 | 1012.0 |
| 20260507112518 | 11 | 203 | 8.0 | 16.1 | 0.00 | 0.71 | 0.05 | 89 | 1012.1 |
| 20260507111538 | 11 | 270 | 6.4 | 12.9 | 0.00 | 0.71 | 0.05 | 89 | 1012.0 |
| 20260507110517 | 11 | 270 | 6.4 | 12.9 | 0.00 | 0.71 | 0.05 | 90 | 1012.0 |
| 20260507105517 | 11 | 270 | 6.4 | 12.9 | 0.00 | 0.71 | 0.05 | 90 | 1012.0 |
| 20260507104518 | 11 | 270 | 4.8 | 12.9 | 0.00 | 0.71 | 0.05 | 90 | 1011.9 |
| 20260507103537 | 11 | 270 | 9.7 | 17.7 | 0.00 | 0.71 | 0.05 | 89 | 1011.8 |
| 20260507102537 | 11 | 315 | 8.0 | 14.5 | 0.00 | 0.71 | 0.05 | 90 | 1011.8 |
| 20260507101537 | 11 | 270 | 8.0 | 16.1 | 0.00 | 0.71 | 0.05 | 90 | 1011.7 |
| 20260507100517 | 11 | 225 | 9.7 | 17.7 | 0.00 | 0.71 | 0.05 | 91 | 1011.7 |
| 20260507095517 | 11 | 225 | 9.7 | 22.5 | 0.00 | 0.71 | 0.05 | 92 | 1011.6 |
| 20260507094517 | 11 | 248 | 4.8 | 14.5 | 0.03 | 0.71 | 0.05 | 93 | 1011.6 |
| 20260507093517 | 11 | 225 | 9.7 | 17.7 | 0.03 | 0.71 | 0.05 | 93 | 1011.5 |
| 20260507092517 | 11 | 225 | 8.0 | 16.1 | 0.03 | 0.71 | 0.05 | 93 | 1011.4 |
| 20260507091517 | 11 | 225 | 6.4 | 12.9 | 0.03 | 0.71 | 0.05 | 94 | 1011.3 |
| 20260507090517 | 10 | 225 | 9.7 | 17.7 | 0.03 | 0.71 | 0.05 | 94 | 1011.2 |
| 20260507085519 | 10 | 203 | 6.4 | 11.3 | 0.03 | 0.71 | 0.05 | 94 | 1011.0 |
| 20260507084517 | 10 | 203 | 6.4 | 14.5 | 0.00 | 0.69 | 0.05 | 94 | 1011.0 |
| 20260507083517 | 10 | 203 | 9.7 | 19.3 | 0.00 | 0.69 | 0.05 | 94 | 1010.7 |
| 20260507082517 | 10 | 203 | 8.0 | 14.5 | 0.00 | 0.69 | 0.05 | 94 | 1010.6 |
| 20260507081517 | 10 | 225 | 6.4 | 14.5 | 0.00 | 0.69 | 0.05 | 94 | 1010.4 |
| 20260507080517 | 10 | 225 | 6.4 | 9.7 | 0.03 | 0.69 | 0.05 | 94 | 1010.3 |
| 20260507075517 | 10 | 225 | 6.4 | 17.7 | 0.03 | 0.69 | 0.05 | 95 | 1010.3 |
| 20260507074517 | 10 | 225 | 6.4 | 11.3 | 0.03 | 0.69 | 0.05 | 95 | 1010.1 |
| 20260507073537 | 10 | 203 | 6.4 | 12.9 | 0.03 | 0.69 | 0.05 | 95 | 1010.0 |
| 20260507072517 | 10 | 203 | 9.7 | 14.5 | 0.03 | 0.69 | 0.05 | 95 | 1009.9 |
| 20260507071517 | 10 | 203 | 6.4 | 14.5 | 0.03 | 0.69 | 0.05 | 95 | 1009.8 |
| 20260507070517 | 9 | 203 | 8.0 | 14.5 | 0.00 | 0.66 | 0.03 | 95 | 1009.8 |
| 20260507065537 | 9 | 203 | 9.7 | 17.7 | 0.00 | 0.66 | 0.03 | 95 | 1009.9 |
| 20260507064517 | 9 | 203 | 8.0 | 14.5 | 0.00 | 0.66 | 0.03 | 95 | 1009.7 |
| 20260507063517 | 9 | 203 | 6.4 | 16.1 | 0.00 | 0.66 | 0.03 | 95 | 1009.6 |
| 20260507062517 | 9 | 180 | 9.7 | 16.1 | 0.00 | 0.66 | 0.03 | 95 | 1009.5 |
| 20260507061518 | 9 | 203 | 8.0 | 14.5 | 0.00 | 0.66 | 0.03 | 95 | 1009.5 |
| 20260507060517 | 9 | 203 | 4.8 | 9.7 | 0.00 | 0.66 | 0.03 | 95 | 1009.5 |
| 20260507055517 | 9 | 203 | 8.0 | 16.1 | 0.00 | 0.66 | 0.03 | 95 | 1009.4 |
| 20260507054516 | 9 | 203 | 4.8 | 9.7 | 0.00 | 0.66 | 0.03 | 95 | 1009.2 |
| 20260507053537 | 9 | 180 | 3.2 | 6.4 | 0.00 | 0.66 | 0.03 | 95 | 1009.2 |
| 20260507052536 | 9 | 225 | 6.4 | 9.7 | 0.00 | 0.66 | 0.03 | 95 | 1009.0 |
| 20260507051517 | 9 | 225 | 6.4 | 14.5 | 0.00 | 0.66 | 0.03 | 95 | 1008.8 |
| 20260507050517 | 9 | 225 | 6.4 | 14.5 | 0.00 | 0.66 | 0.03 | 95 | 1009.1 |
| 20260507045537 | 9 | 225 | 4.8 | 12.9 | 0.00 | 0.66 | 0.03 | 95 | 1008.9 |
| 20260507044537 | 9 | 180 | 3.2 | 8.0 | 0.00 | 0.66 | 0.03 | 95 | 1008.9 |
| 20260507043516 | 9 | 225 | 4.8 | 9.7 | 0.00 | 0.66 | 0.03 | 95 | 1008.9 |
| 20260507042536 | 9 | 225 | 4.8 | 9.7 | 0.00 | 0.66 | 0.03 | 95 | 1008.9 |
| 20260507041516 | 9 | 225 | 6.4 | 14.5 | 0.00 | 0.66 | 0.03 | 95 | 1008.8 |
| 20260507040516 | 9 | 248 | 6.4 | 12.9 | 0.00 | 0.66 | 0.03 | 95 | 1008.8 |
| 20260507035516 | 9 | 225 | 4.8 | 9.7 | 0.00 | 0.66 | 0.03 | 95 | 1008.8 |
| 20260507034539 | 9 | 203 | 6.4 | 14.5 | 0.00 | 0.66 | 0.03 | 95 | 1008.7 |
| 20260507033516 | 9 | 203 | 6.4 | 9.7 | 0.00 | 0.66 | 0.03 | 95 | 1008.6 |
| 20260507032516 | 9 | 225 | 6.4 | 12.9 | 0.00 | 0.66 | 0.03 | 95 | 1008.6 |
| 20260507031516 | 10 | 225 | 8.0 | 17.7 | 0.00 | 0.66 | 0.03 | 95 | 1008.5 |
| 20260507030516 | 10 | 203 | 6.4 | 14.5 | 0.00 | 0.66 | 0.03 | 95 | 1008.4 |
| 20260507025536 | 10 | 225 | 8.0 | 14.5 | 0.00 | 0.66 | 0.03 | 95 | 1008.3 |
| 20260507024516 | 10 | 225 | 4.8 | 9.7 | 0.00 | 0.66 | 0.03 | 95 | 1008.2 |
| 20260507023536 | 10 | 225 | 6.4 | 14.5 | 0.00 | 0.66 | 0.03 | 95 | 1008.2 |
| 20260507022516 | 10 | 248 | 4.8 | 8.0 | 0.00 | 0.66 | 0.03 | 95 | 1008.4 |
| 20260507021517 | 10 | 203 | 4.8 | 9.7 | 0.00 | 0.66 | 0.03 | 95 | 1008.2 |
| 20260507020516 | 10 | 248 | 3.2 | 9.7 | 0.00 | 0.66 | 0.03 | 95 | 1008.2 |
| 20260507015516 | 10 | 203 | 4.8 | 14.5 | 0.00 | 0.66 | 0.03 | 95 | 1008.3 |
| 20260507014516 | 10 | 203 | 6.4 | 11.3 | 0.00 | 0.66 | 0.03 | 95 | 1008.0 |
| 20260507013516 | 10 | 225 | 6.4 | 11.3 | 0.00 | 0.66 | 0.03 | 95 | 1008.0 |
| 20260507012536 | 10 | 203 | 6.4 | 9.7 | 0.00 | 0.66 | 0.03 | 95 | 1008.0 |
| 20260507011516 | 10 | 248 | 4.8 | 9.7 | 0.00 | 0.66 | 0.03 | 95 | 1008.0 |
| 20260507010516 | 10 | 225 | 8.0 | 17.7 | 0.00 | 0.66 | 0.03 | 95 | 1007.9 |
| 20260507005516 | 10 | 203 | 6.4 | 11.3 | 0.00 | 0.66 | 0.03 | 94 | 1007.9 |
| 20260507004516 | 10 | 225 | 4.8 | 11.3 | 0.00 | 0.66 | 0.03 | 94 | 1008.0 |
| 20260507003516 | 10 | 225 | 6.4 | 11.3 | 0.00 | 0.66 | 0.03 | 94 | 1007.9 |
| 20260507002516 | 10 | 203 | 6.4 | 11.3 | 0.00 | 0.66 | 0.03 | 94 | 1007.8 |
| 20260507001516 | 10 | 248 | 6.4 | 11.3 | 0.00 | 0.66 | 0.03 | 94 | 1008.0 |
| 20260507000516 | 10 | 158 | 3.2 | 8.0 | 0.00 | 0.66 | 0.03 | 94 | 1008.0 |
| 20260506235556 | 11 | 203 | 1.6 | 4.8 | 0.00 | 0.66 | 0.03 | 94 | 1007.9 |
| 20260506234516 | 10 | 158 | 1.6 | 3.2 | 0.00 | 0.66 | 0.03 | 94 | 1007.9 |
| 20260506233536 | 11 | 158 | 1.6 | 3.2 | 0.00 | 0.66 | 0.03 | 94 | 1008.1 |
| 20260506232516 | 11 | 203 | 1.6 | 6.4 | 0.00 | 0.66 | 0.03 | 94 | 1008.0 |
| 20260506231516 | 11 | 158 | 3.2 | 6.4 | 0.00 | 0.66 | 0.03 | 94 | 1008.0 |
| 20260506230516 | 11 | 180 | 3.2 | 4.8 | 0.03 | 0.69 | 0.03 | 94 | 1007.9 |
| 20260506225536 | 11 | 0.0 | 3.2 | 0.03 | 0.69 | 0.03 | 94 | 1007.7 | |
| 20260506224516 | 11 | 225 | 1.6 | 8.0 | 0.03 | 0.69 | 0.03 | 94 | 1007.5 |
| 20260506223516 | 11 | 225 | 1.6 | 4.8 | 0.03 | 0.69 | 0.03 | 94 | 1007.6 |
| 20260506222516 | 11 | 158 | 3.2 | 6.4 | 0.03 | 0.69 | 0.03 | 94 | 1007.5 |
| 20260506221516 | 11 | 158 | 1.6 | 8.0 | 0.03 | 0.69 | 0.03 | 94 | 1007.4 |
| 20260506220536 | 11 | 158 | 1.6 | 3.2 | 0.00 | 0.66 | 0.00 | 94 | 1007.3 |
| 20260506215516 | 11 | 158 | 3.2 | 6.4 | 0.00 | 0.66 | 0.66 | 94 | 1007.4 |
| 20260506214517 | 11 | 158 | 1.6 | 4.8 | 0.00 | 0.66 | 0.66 | 94 | 1007.5 |
| 20260506213537 | 11 | 0.0 | 3.2 | 0.03 | 0.66 | 0.66 | 93 | 1007.3 | |
| 20260506212516 | 11 | 180 | 1.6 | 3.2 | 0.05 | 0.66 | 0.66 | 93 | 1007.3 |
| 20260506211516 | 11 | 0.0 | 1.6 | 0.08 | 0.66 | 0.66 | 93 | 1007.0 | |
| 20260506210516 | 11 | 0.0 | 1.6 | 0.15 | 0.66 | 0.66 | 93 | 1007.1 | |
| 20260506205516 | 11 | 113 | 1.6 | 4.8 | 0.23 | 0.66 | 0.66 | 93 | 1007.0 |
| 20260506204516 | 11 | 113 | 1.6 | 4.8 | 0.28 | 0.66 | 0.66 | 93 | 1007.1 |
| 20260506203537 | 11 | 158 | 1.6 | 6.4 | 0.28 | 0.64 | 0.64 | 93 | 1006.9 |
| 20260506202516 | 11 | 113 | 3.2 | 4.8 | 0.30 | 0.61 | 0.61 | 93 | 1006.8 |
| 20260506201516 | 11 | 135 | 4.8 | 9.7 | 0.30 | 0.58 | 0.58 | 93 | 1006.7 |